This is the latest recevied weather packets stored in our database for station/object KC7WRB. If no packets are shown the sender has not sent any weather packets the latest 10 day(s).
| Time | Temp. | Humidity | Pressure | Rain* | Wind** | Luminosity | Snow |
|---|---|---|---|---|---|---|---|
| 1778322027 | 10° C | 59% | 1020.2 hPa | 0 mm | - | 0 W/m² | - |
| 1778321723 | 9.44° C | 58% | 1020.3 hPa | 0 mm | - | 0 W/m² | - |
| 1778321420 | 8.89° C | 61% | 1020.2 hPa | 0 mm | - | 0 W/m² | - |
| 1778321117 | 9.44° C | 61% | 1020.2 hPa | 0 mm | - | 0 W/m² | - |
| 1778320815 | 10° C | 58% | 1020.3 hPa | 0 mm | - | 0 W/m² | - |
| 1778320511 | 10° C | 58% | 1020 hPa | 0 mm | - | 0 W/m² | - |
| 1778320208 | 10.56° C | 55% | 1020.2 hPa | 0 mm | - | 0 W/m² | - |
| 1778319904 | 10° C | 57% | 1020 hPa | 0 mm | - | 0 W/m² | - |
| 1778319602 | 10° C | 58% | 1019.9 hPa | 0 mm | - | 0 W/m² | - |
| 1778319300 | 10° C | 59% | 1019.9 hPa | 0 mm | - | 0 W/m² | - |
| 1778318997 | 10° C | 59% | 1020 hPa | 0 mm | - | 0 W/m² | - |
| 1778318695 | 10° C | 60% | 1020 hPa | 0 mm | - | 0 W/m² | - |
| 1778318393 | 10° C | 61% | 1020.1 hPa | 0 mm | - | 0 W/m² | - |
| 1778318090 | 10° C | 60% | 1020 hPa | 0 mm | - | 0 W/m² | - |
| 1778317787 | 10° C | 61% | 1020 hPa | 0 mm | - | 0 W/m² | - |
| 1778317484 | 9.44° C | 62% | 1019.8 hPa | 0 mm | - | 0 W/m² | - |
| 1778317182 | 10.56° C | 59% | 1020 hPa | 0 mm | - | 0 W/m² | - |
| 1778316879 | 10.56° C | 57% | 1020 hPa | 0 mm | - | 0 W/m² | - |
| 1778316575 | 11.67° C | 56% | 1019.9 hPa | 0 mm | - | 0 W/m² | - |
| 1778316272 | 11.67° C | 54% | 1019.8 hPa | 0 mm | - | 0 W/m² | - |
| 1778315969 | 11.11° C | 55% | 1019.8 hPa | 0 mm | - | 0 W/m² | - |
| 1778315666 | 11.11° C | 53% | 1019.8 hPa | 0 mm | - | 0 W/m² | - |
| 1778315363 | 10.56° C | 52% | 1019.7 hPa | 0 mm | - | 0 W/m² | - |
| 1778315061 | 10.56° C | 54% | 1019.9 hPa | 0 mm | - | 0 W/m² | - |
| 1778314757 | 11.11° C | 53% | 1019.7 hPa | 0 mm | - | 0 W/m² | - |
* Rain latest hour (hover to see other rain measurements)
** Current wind speed in m/s (hover to see current wind gust speed)